createdAt,value
2018-09-09T07:18:50.654Z,99.90
2018-09-09T07:21:18.938Z,99.90
2018-09-09T07:23:47.185Z,99.90
2018-09-09T07:26:15.446Z,99.90
2018-09-09T07:28:43.674Z,99.90
2018-09-09T07:31:11.974Z,99.90
2018-09-09T07:33:40.194Z,99.90
2018-09-09T07:36:08.569Z,99.90
2018-09-09T07:38:36.861Z,99.90
2018-09-09T07:41:05.109Z,99.90
2018-09-09T07:43:33.414Z,99.90
2018-09-09T07:46:01.673Z,99.90
2018-09-09T07:48:29.954Z,99.90
2018-09-09T07:50:58.214Z,99.90
2018-09-09T07:53:26.453Z,99.90
2018-09-09T07:55:54.709Z,99.90
2018-09-09T07:58:22.955Z,99.90
2018-09-09T08:00:51.381Z,99.90
2018-09-09T08:03:19.610Z,99.90
2018-09-09T08:05:47.865Z,99.90
2018-09-09T08:08:16.102Z,99.90
2018-09-09T08:10:44.378Z,99.90
2018-09-09T08:13:12.646Z,99.90
2018-09-09T08:15:40.905Z,99.90
2018-09-09T08:18:09.144Z,99.90
2018-09-09T08:20:37.416Z,99.90
2018-09-09T08:23:05.690Z,99.90
2018-09-09T08:25:33.954Z,99.90
2018-09-09T08:28:02.238Z,99.90
2018-09-09T08:30:30.501Z,99.90
2018-09-09T08:32:58.750Z,99.90
2018-09-09T08:35:27.003Z,99.90
2018-09-09T08:37:55.347Z,99.90
2018-09-09T08:40:23.601Z,99.90
2018-09-09T08:42:51.822Z,99.90
2018-09-09T08:45:20.099Z,99.90
2018-09-09T08:47:48.341Z,99.90
2018-09-09T08:50:16.607Z,99.90
2018-09-09T08:52:44.849Z,99.90
2018-09-09T08:55:13.114Z,99.90
2018-09-09T08:57:41.410Z,99.90
2018-09-09T09:00:09.653Z,99.90
2018-09-09T09:02:37.950Z,99.50
2018-09-09T09:05:06.186Z,97.50
2018-09-09T09:07:34.491Z,96.90
2018-09-09T09:10:02.705Z,98.10
2018-09-09T09:12:30.970Z,99.90
2018-09-09T09:14:59.210Z,96.10
2018-09-09T09:17:27.485Z,93.70
2018-09-09T09:19:55.728Z,93.20
2018-09-09T09:22:23.997Z,92.70
2018-09-09T09:24:52.226Z,92.90
2018-09-09T09:27:20.491Z,94.30
2018-09-09T09:29:54.122Z,90.60
2018-09-09T09:32:23.750Z,90.00
2018-09-09T09:34:52.659Z,91.00
2018-09-09T09:37:21.836Z,90.00
2018-09-09T09:39:50.098Z,89.90
2018-09-09T09:42:18.365Z,91.60
2018-09-09T09:44:46.624Z,88.60
2018-09-09T09:47:14.894Z,88.60
2018-09-09T09:49:43.129Z,85.90
2018-09-09T09:52:11.595Z,86.70
2018-09-09T09:54:40.260Z,87.00
2018-09-09T09:57:08.966Z,83.00
2018-09-09T09:59:37.218Z,83.90
2018-09-09T10:02:05.478Z,85.50
2018-09-09T10:04:33.729Z,85.00
2018-09-09T10:07:02.000Z,83.20
2018-09-09T10:09:30.244Z,81.90
2018-09-09T10:11:58.511Z,86.00
2018-09-09T10:14:26.755Z,89.00
2018-09-09T10:16:55.021Z,79.20
2018-09-09T10:19:23.269Z,71.90
2018-09-09T10:21:51.706Z,71.30
2018-09-09T10:24:19.958Z,77.70
2018-09-09T10:26:48.221Z,76.50
2018-09-09T10:29:16.474Z,72.80
2018-09-09T10:31:44.737Z,70.60
2018-09-09T10:34:12.994Z,68.60
2018-09-09T10:36:41.241Z,70.80
2018-09-09T10:39:11.596Z,69.70
2018-09-09T10:41:40.047Z,70.50
2018-09-09T10:44:08.758Z,70.40
2018-09-09T10:46:37.059Z,69.60
2018-09-09T10:49:05.383Z,71.80
2018-09-09T10:51:33.627Z,70.00
2018-09-09T10:54:02.017Z,66.40
2018-09-09T10:56:30.266Z,68.70
2018-09-09T10:58:58.542Z,64.60
2018-09-09T11:01:26.789Z,62.50
2018-09-09T11:03:55.053Z,65.00
2018-09-09T11:06:23.297Z,62.80
2018-09-09T11:08:51.558Z,65.30
2018-09-09T11:11:19.798Z,64.20
2018-09-09T11:13:48.066Z,67.40
2018-09-09T11:16:16.309Z,64.50
2018-09-09T11:18:44.566Z,68.50
2018-09-09T11:21:12.825Z,63.70
2018-09-09T11:23:41.098Z,62.00
2018-09-09T11:26:09.343Z,64.20
2018-09-09T11:28:37.602Z,64.90
2018-09-09T11:31:05.952Z,61.70
2018-09-09T11:33:34.203Z,62.40
2018-09-09T11:36:02.446Z,63.80
2018-09-09T11:38:30.712Z,60.80
2018-09-09T11:40:58.949Z,61.70
2018-09-09T11:43:27.221Z,61.60
2018-09-09T11:45:55.457Z,59.10
2018-09-09T11:48:23.721Z,58.90
2018-09-09T11:50:51.963Z,59.40
2018-09-09T11:53:20.221Z,57.20
2018-09-09T11:55:48.483Z,59.20
2018-09-09T11:58:16.748Z,61.60
2018-09-09T12:00:45.006Z,58.50
2018-09-09T12:03:13.260Z,58.00
2018-09-09T12:05:41.498Z,57.30
2018-09-09T12:08:09.751Z,56.00
2018-09-09T12:10:38.001Z,61.10
2018-09-09T12:13:06.268Z,55.90
2018-09-09T12:15:34.516Z,59.00
2018-09-09T12:18:02.769Z,58.20
2018-09-09T12:20:31.019Z,56.80
2018-09-09T12:22:59.293Z,59.50
2018-09-09T12:25:27.542Z,57.30
2018-09-09T12:27:55.815Z,57.50
2018-09-09T12:30:24.072Z,57.00
2018-09-09T12:32:52.335Z,55.70
2018-09-09T12:35:20.665Z,54.70
2018-09-09T12:37:49.003Z,56.50
2018-09-09T12:40:17.220Z,56.90
2018-09-09T12:42:48.146Z,54.80
2018-09-09T12:45:21.898Z,56.40
2018-09-09T12:47:55.569Z,54.20
2018-09-09T12:50:23.827Z,53.00
2018-09-09T12:52:52.110Z,50.90
2018-09-09T12:55:20.359Z,54.80
2018-09-09T12:57:48.597Z,54.90
2018-09-09T13:00:16.916Z,53.40
2018-09-09T13:02:45.148Z,51.70
2018-09-09T13:05:13.417Z,53.70
2018-09-09T13:07:41.694Z,54.70
2018-09-09T13:10:09.984Z,53.60
2018-09-09T13:12:43.719Z,52.00
2018-09-09T13:15:11.974Z,52.50
2018-09-09T13:17:40.213Z,48.80
2018-09-09T13:20:08.481Z,48.80
2018-09-09T13:22:36.754Z,51.30
2018-09-09T13:25:05.023Z,47.80
2018-09-09T13:27:33.274Z,48.70
2018-09-09T13:30:01.546Z,46.70
2018-09-09T13:32:29.790Z,50.30
2018-09-09T13:34:58.062Z,47.60
2018-09-09T13:37:26.305Z,50.40
2018-09-09T13:39:54.578Z,45.60
2018-09-09T13:42:22.830Z,48.20
2018-09-09T13:44:51.096Z,48.20
2018-09-09T13:47:19.745Z,47.20
2018-09-09T13:49:48.032Z,47.40
2018-09-09T13:52:16.304Z,48.50
2018-09-09T13:54:44.578Z,51.10
2018-09-09T13:57:12.822Z,49.10
2018-09-09T13:59:41.087Z,49.80
2018-09-09T14:02:09.318Z,50.30
2018-09-09T14:04:37.578Z,49.60
2018-09-09T14:07:05.834Z,50.00
2018-09-09T14:09:34.145Z,50.00
2018-09-09T14:12:02.365Z,49.70
2018-09-09T14:14:30.626Z,48.00
2018-09-09T14:16:58.858Z,47.80
2018-09-09T14:19:27.119Z,51.50
2018-09-09T14:21:55.375Z,49.90
2018-09-09T14:24:23.646Z,46.90
2018-09-09T14:26:51.905Z,50.00
2018-09-09T14:29:20.208Z,47.70
2018-09-09T14:31:48.453Z,49.00
2018-09-09T14:34:16.776Z,47.30
2018-09-09T14:36:44.985Z,46.70
2018-09-09T14:39:13.241Z,46.10
2018-09-09T14:41:41.486Z,48.90
2018-09-09T14:44:09.801Z,44.90
2018-09-09T14:46:38.026Z,46.40
2018-09-09T14:49:06.263Z,45.40
2018-09-09T14:51:34.522Z,42.60
2018-09-09T14:54:02.770Z,41.30
2018-09-09T14:56:31.040Z,41.80
2018-09-09T14:58:59.280Z,43.00
2018-09-09T15:01:27.539Z,43.50
2018-09-09T15:03:55.789Z,44.40
2018-09-09T15:06:24.047Z,39.10
2018-09-09T15:08:52.297Z,42.60
2018-09-09T15:11:20.561Z,37.00
2018-09-09T15:13:48.816Z,40.40
2018-09-09T15:16:17.082Z,43.50
2018-09-09T15:18:45.326Z,42.30
2018-09-09T15:21:13.614Z,41.20
